Search for airport 
image banner adimage banner adimage banner ad
image banner ad

KSFO - San Francisco Intl

Located in San Francisco, United States

ICAO - SFO, IATA - SFO

Data provided by Airmate  

General information

Coordinates: N37°37'8" W122°22'32"
Elevation is 13 feet MSL.
Magnetic variation is 14° East
View others Airports in California

Operational data

Special qualification required
Current time UTC:
Current local time:
Weather
METAR: KSFO 290856Z 31009KT 10SM FEW005 SCT200 14/13 A2997 RMK AO2 SLP149 T01440128 58007
TAF: KSFO 290900Z 2909/3012 30010KT P6SM FEW005 FM291000 29005KT P6SM SCT008 FM291700 31007KT P6SM FEW010 FM292200 31019KT P6SM SKC FM300400 30011KT P6SM FEW010 FM301000 29005KT P6SM SCT008
View NOTAMs / SUP AIP / TFR affecting this airport [VIEW]
Communications frequencies: [VIEW]

Runways:

RWY identifierQFULength (ft)Width (ft)SurfaceLDA (ft)
01R28°8650200ASPH8090
19L208°8650200ASPH8650
01L28°7650200ASPH7010
19R208°7650200ASPH7650
10R118°11381200ASPH10704
28L298°11381200ASPH10275
10L118°11870200ASPH11193
28R298°11870200ASPH11236

Airport contact information

Address: San Francisco United States

Satellite view of KSFO